Time;durP1;ratioP1;P1;durP2;ratioP2;P2;SDS_P1;SDS_P2;PMS_P1;PMS_P2;Temp;Humidity;BMP_temperature;BMP_pressure;BME280_temperature;BME280_humidity;BME280_pressure;Samples;Min_cycle;Max_cycle;Signal;HPM_P1;HPM_P2
2021/05/26 00:02:09;;;;;;;34.20;20.15;;;;;;;14.98;100.00;100446.30;1701182;84;21064;-72
2021/05/26 00:04:36;;;;;;;46.90;29.95;;;;;;;15.03;100.00;100448.44;1701189;84;21075;-73
2021/05/26 00:07:03;;;;;;;51.73;34.18;;;;;;;15.07;100.00;100445.69;1701136;84;21017;-72
2021/05/26 00:09:30;;;;;;;76.28;49.98;;;;;;;15.09;100.00;100439.52;1701268;84;21060;-73
2021/05/26 00:11:57;;;;;;;123.58;80.75;;;;;;;15.10;100.00;100438.50;1680484;83;21093;-72
2021/05/26 00:14:24;;;;;;;97.12;64.65;;;;;;;15.13;100.00;100434.53;1691574;84;21071;-71
2021/05/26 00:16:52;;;;;;;143.97;96.12;;;;;;;15.13;100.00;100434.01;1732973;82;21112;-72
2021/05/26 00:19:19;;;;;;;90.95;61.18;;;;;;;15.14;100.00;100432.98;1745413;81;21021;-72
2021/05/26 00:21:46;;;;;;;61.68;40.23;;;;;;;15.14;100.00;100423.45;1769432;81;21535;-73
2021/05/26 00:24:13;;;;;;;44.20;29.00;;;;;;;15.12;100.00;100421.94;1696479;84;21595;-72
2021/05/26 00:26:39;;;;;;;31.15;18.67;;;;;;;15.10;100.00;100423.52;1725389;82;21559;-72
2021/05/26 00:29:07;;;;;;;133.55;88.10;;;;;;;15.08;100.00;100423.37;1744544;80;21041;-72
2021/05/26 00:31:35;;;;;;;105.45;73.87;;;;;;;15.05;100.00;100423.74;1732919;82;21550;-71
2021/05/26 00:34:02;;;;;;;101.87;69.55;;;;;;;15.03;100.00;100423.09;1733133;82;21554;-72
2021/05/26 00:36:30;;;;;;;68.65;50.50;;;;;;;14.99;100.00;100421.27;1733315;82;21527;-72
2021/05/26 00:38:58;;;;;;;91.17;70.90;;;;;;;14.97;100.00;100417.38;1713320;83;21001;-73
2021/05/26 00:41:29;;;;;;;42.23;32.10;;;;;;;14.95;100.00;100414.53;1733237;82;21017;-73
2021/05/26 00:43:56;;;;;;;27.40;18.10;;;;;;;14.94;100.00;100422.36;1733017;83;21061;-73
2021/05/26 00:46:23;;;;;;;14.78;9.13;;;;;;;14.93;100.00;100420.69;1733131;82;21558;-73
2021/05/26 00:48:50;;;;;;;17.92;10.05;;;;;;;14.89;100.00;100413.42;1733043;82;21076;-73
2021/05/26 00:51:17;;;;;;;17.02;9.00;;;;;;;14.88;100.00;100414.97;1733102;82;21049;-73
2021/05/26 00:53:44;;;;;;;11.80;6.95;;;;;;;14.87;100.00;100418.18;1711836;82;21068;-71
2021/05/26 00:56:11;;;;;;;9.93;6.10;;;;;;;14.87;100.00;100410.02;1733164;82;21001;-72
2021/05/26 00:58:39;;;;;;;14.30;8.00;;;;;;;14.86;100.00;100413.79;1685755;84;21099;-71
2021/05/26 01:01:06;;;;;;;13.53;7.03;;;;;;;14.86;100.00;100417.04;1731614;83;21514;-72
2021/05/26 01:03:33;;;;;;;13.05;6.92;;;;;;;14.84;100.00;100406.34;1733049;82;21056;-72
2021/05/26 01:06:02;;;;;;;11.95;6.47;;;;;;;14.83;100.00;100410.08;1732909;83;21069;-72
2021/05/26 01:08:29;;;;;;;15.00;6.65;;;;;;;14.79;100.00;100410.98;1685958;84;21068;-73
2021/05/26 01:10:58;;;;;;;13.70;6.08;;;;;;;14.78;100.00;100413.39;1732753;82;21144;-73
2021/05/26 01:13:27;;;;;;;16.20;7.33;;;;;;;14.76;100.00;100410.52;1672526;86;21121;-73
2021/05/26 01:15:54;;;;;;;13.32;6.40;;;;;;;14.75;100.00;100412.40;1733279;82;20974;-71
2021/05/26 01:18:30;;;;;;;11.93;6.55;;;;;;;14.75;100.00;100412.89;1730004;83;21057;-72
2021/05/26 01:21:07;;;;;;;17.15;6.62;;;;;;;14.74;100.00;100414.78;1715316;83;21146;-72
2021/05/26 01:23:34;;;;;;;12.70;6.37;;;;;;;14.73;100.00;100410.88;1717800;83;21577;-73
2021/05/26 01:26:04;;;;;;;12.25;5.95;;;;;;;14.70;100.00;100410.76;1717934;83;21072;-73
2021/05/26 01:28:32;;;;;;;14.65;7.58;;;;;;;14.69;100.00;100416.39;1694829;83;21061;-72
2021/05/26 01:31:00;;;;;;;20.57;8.13;;;;;;;14.67;100.00;100415.73;1714510;83;21077;-73
2021/05/26 01:33:28;;;;;;;17.62;7.87;;;;;;;14.66;100.00;100417.63;1715023;83;21084;-73
2021/05/26 01:35:56;;;;;;;15.40;7.58;;;;;;;14.64;100.00;100416.94;1714797;83;21650;-72
2021/05/26 01:38:24;;;;;;;16.75;7.00;;;;;;;14.62;100.00;100410.84;1714526;83;21582;-73
2021/05/26 01:40:59;;;;;;;14.90;6.50;;;;;;;14.59;100.00;100408.52;1714668;83;21037;-72
2021/05/26 01:43:27;;;;;;;13.05;6.03;;;;;;;14.54;100.00;100412.29;1715066;83;21064;-73
2021/05/26 01:45:54;;;;;;;12.35;6.15;;;;;;;14.50;100.00;100408.23;1715130;83;21139;-72
2021/05/26 01:48:21;;;;;;;11.65;6.05;;;;;;;14.44;100.00;100405.75;1714752;83;21530;-74
2021/05/26 01:50:49;;;;;;;13.00;5.90;;;;;;;14.40;100.00;100405.81;1714921;83;21085;-73
2021/05/26 01:53:17;;;;;;;15.53;5.50;;;;;;;14.38;100.00;100405.99;1714709;83;21061;-72
2021/05/26 01:55:44;;;;;;;16.07;5.30;;;;;;;14.36;100.00;100414.00;1714978;83;21065;-72
2021/05/26 01:58:16;;;;;;;12.53;5.67;;;;;;;14.35;100.00;100411.80;1715032;83;21622;-72
2021/05/26 02:00:44;;;;;;;11.68;5.80;;;;;;;14.35;100.00;100411.80;1714570;83;21081;-72
2021/05/26 02:03:12;;;;;;;9.15;5.47;;;;;;;14.34;100.00;100414.70;1715037;83;21049;-72
2021/05/26 02:05:39;;;;;;;9.28;5.42;;;;;;;14.35;100.00;100419.13;1714885;83;21053;-72
2021/05/26 02:08:07;;;;;;;13.22;6.33;;;;;;;14.37;100.00;100418.42;1714830;82;21073;-72
2021/05/26 02:13:19;;;;;;;9.18;6.28;;;;;;;14.41;100.00;100424.67;1736996;82;21069;-71
2021/05/26 02:15:48;;;;;;;9.85;5.90;;;;;;;14.43;100.00;100426.69;1731669;82;21100;-72
2021/05/26 02:18:15;;;;;;;9.68;5.62;;;;;;;14.44;100.00;100422.08;1735908;82;21095;-72
2021/05/26 02:20:42;;;;;;;16.10;6.05;;;;;;;14.46;100.00;100422.73;1771826;81;21029;-72
2021/05/26 02:23:13;;;;;;;11.63;6.10;;;;;;;14.49;100.00;100425.09;1772265;80;21085;-72
2021/05/26 02:25:41;;;;;;;10.28;5.40;;;;;;;14.52;100.00;100426.58;1771740;81;21045;-72
2021/05/26 02:28:10;;;;;;;12.43;5.62;;;;;;;14.56;100.00;100437.43;1765143;80;21594;-72
2021/05/26 02:30:37;;;;;;;14.93;6.60;;;;;;;14.58;100.00;100438.12;1741208;82;21076;-72
2021/05/26 02:33:05;;;;;;;18.20;7.20;;;;;;;14.60;100.00;100440.97;1741230;82;21083;-72
2021/05/26 02:35:33;;;;;;;20.72;9.15;;;;;;;14.61;100.00;100439.11;1741182;82;21033;-73
2021/05/26 02:38:00;;;;;;;19.60;7.92;;;;;;;14.63;100.00;100438.41;1741374;82;21042;-72
2021/05/26 02:40:28;;;;;;;17.50;6.92;;;;;;;14.68;100.00;100439.17;1741322;82;21084;-73
2021/05/26 02:42:56;;;;;;;13.75;6.65;;;;;;;14.72;100.00;100439.98;1740928;82;21064;-71
2021/05/26 02:45:23;;;;;;;15.68;7.17;;;;;;;14.78;100.00;100443.83;1741309;82;21550;-72
2021/05/26 02:47:51;;;;;;;12.10;6.65;;;;;;;14.83;100.00;100439.19;1741226;82;21096;-72
2021/05/26 02:50:18;;;;;;;18.32;7.37;;;;;;;14.88;100.00;100443.03;1741292;82;21049;-72
2021/05/26 02:52:47;;;;;;;17.73;6.92;;;;;;;14.93;100.00;100446.02;1741315;82;21005;-72
2021/05/26 02:55:16;;;;;;;15.32;6.22;;;;;;;14.98;100.00;100448.19;1741286;82;21005;-72
2021/05/26 02:57:45;;;;;;;12.50;6.35;;;;;;;15.05;100.00;100451.84;1738276;82;21060;-72
2021/05/26 03:00:19;;;;;;;15.25;6.78;;;;;;;15.11;100.00;100447.50;1738458;82;21024;-72
2021/05/26 03:02:48;;;;;;;13.88;6.25;;;;;;;15.17;100.00;100450.31;1738378;82;21021;-71
2021/05/26 03:05:16;;;;;;;17.60;7.70;;;;;;;15.24;100.00;100449.53;1741994;82;21040;-72
2021/05/26 03:07:43;;;;;;;15.32;7.12;;;;;;;15.31;100.00;100445.00;1741248;82;21029;-72
2021/05/26 03:10:14;;;;;;;15.35;6.58;;;;;;;15.37;100.00;100449.17;1741722;82;21561;-71
2021/05/26 03:12:42;;;;;;;15.98;6.15;;;;;;;15.44;100.00;100452.48;1734571;81;21136;-73
2021/05/26 03:15:14;;;;;;;11.60;5.60;;;;;;;15.51;100.00;100454.26;1733294;82;21041;-73
2021/05/26 03:17:41;;;;;;;7.97;5.25;;;;;;;15.57;100.00;100449.91;1712471;83;21026;-73
2021/05/26 03:20:13;;;;;;;7.92;5.08;;;;;;;15.69;100.00;100454.34;1748607;81;21503;-72
2021/05/26 03:22:46;;;;;;;7.95;5.00;;;;;;;15.69;100.00;100454.34;1763513;81;21058;-72
2021/05/26 03:25:31;;;;;;;8.60;5.50;;;;;;;15.73;100.00;100452.37;1763439;81;21021;-72
2021/05/26 03:28:03;;;;;;;8.43;5.62;;;;;;;15.78;100.00;100452.36;1662662;85;21092;-72
2021/05/26 03:30:30;;;;;;;9.50;5.70;;;;;;;15.85;100.00;100455.45;1671579;86;21099;-73
2021/05/26 03:32:58;;;;;;;10.90;5.58;;;;;;;15.85;100.00;100455.45;1667426;85;21641;-72
2021/05/26 03:35:26;;;;;;;13.30;6.37;;;;;;;15.88;100.00;100454.21;1648413;85;21031;-72
2021/05/26 03:37:54;;;;;;;11.97;6.35;;;;;;;15.93;100.00;100456.67;1659921;86;21032;-72
2021/05/26 03:40:21;;;;;;;11.08;5.60;;;;;;;15.96;100.00;100456.81;1659298;86;21100;-72
2021/05/26 03:42:52;;;;;;;12.07;5.95;;;;;;;16.02;100.00;100455.17;1665520;86;21119;-72
2021/05/26 03:45:39;;;;;;;9.80;5.50;;;;;;;16.05;100.00;100455.62;1644402;87;21078;-72
2021/05/26 03:48:09;;;;;;;10.80;6.00;;;;;;;16.11;100.00;100452.62;1644332;87;21046;-73
2021/05/26 03:50:37;;;;;;;11.10;5.45;;;;;;;16.18;100.00;100455.41;1644586;87;21071;-71
2021/05/26 03:53:05;;;;;;;9.30;4.95;;;;;;;16.31;100.00;100461.82;1644273;87;21567;-73
2021/05/26 03:55:34;;;;;;;8.55;4.92;;;;;;;16.31;100.00;100445.45;1644445;87;21049;-73
2021/05/26 03:58:02;;;;;;;9.03;4.85;;;;;;;16.40;100.00;100458.95;1644417;87;21074;-73
2021/05/26 04:00:29;;;;;;;11.48;4.87;;;;;;;16.49;100.00;100458.58;1644448;87;21117;-72
2021/05/26 04:02:58;;;;;;;7.12;4.53;;;;;;;16.60;100.00;100458.55;1644611;87;21081;-73
2021/05/26 04:05:26;;;;;;;9.93;4.95;;;;;;;16.72;100.00;100464.30;1665468;84;21124;-74
2021/05/26 04:07:54;;;;;;;9.95;5.15;;;;;;;16.86;100.00;100466.62;1686024;85;21073;-73
2021/05/26 04:10:23;;;;;;;8.53;5.67;;;;;;;16.98;100.00;100465.00;1685791;85;21069;-73
2021/05/26 04:12:52;;;;;;;16.97;5.67;;;;;;;17.11;100.00;100460.64;1685722;85;21113;-72
2021/05/26 04:15:26;;;;;;;9.60;4.50;;;;;;;17.25;100.00;100463.74;1681710;85;21089;-73
2021/05/26 04:18:11;;;;;;;9.48;4.92;;;;;;;17.43;100.00;100461.80;1665218;85;21068;-74
2021/05/26 04:20:41;;;;;;;8.43;5.25;;;;;;;17.63;100.00;100464.04;1662519;86;21115;-73
2021/05/26 04:23:08;;;;;;;14.35;7.90;;;;;;;17.81;100.00;100465.34;1662508;86;21662;-73
2021/05/26 04:25:35;;;;;;;12.15;6.97;;;;;;;17.97;100.00;100467.72;1662679;86;21111;-73
2021/05/26 04:28:02;;;;;;;19.60;7.95;;;;;;;18.11;100.00;100464.44;1658685;86;21535;-74
2021/05/26 04:30:29;;;;;;;19.00;7.83;;;;;;;18.21;100.00;100464.03;1662795;86;21053;-73
2021/05/26 04:32:57;;;;;;;13.53;7.40;;;;;;;18.30;100.00;100466.87;1684922;84;21131;-73
2021/05/26 04:35:24;;;;;;;10.98;7.17;;;;;;;18.38;100.00;100460.35;1663280;86;21064;-72
2021/05/26 04:37:51;;;;;;;10.98;7.03;;;;;;;18.47;100.00;100463.69;1705318;84;21554;-72
2021/05/26 04:40:18;;;;;;;13.35;7.25;;;;;;;18.58;100.00;100465.25;1662282;85;21079;-72
2021/05/26 04:42:45;;;;;;;12.33;7.28;;;;;;;18.71;100.00;100450.68;1661722;86;21126;-73
2021/05/26 04:45:15;;;;;;;17.48;8.00;;;;;;;18.85;100.00;100456.17;1661589;86;21067;-72
2021/05/26 04:47:42;;;;;;;16.20;8.30;;;;;;;18.99;100.00;100461.91;1661617;86;21039;-72
2021/05/26 04:50:11;;;;;;;16.35;8.13;;;;;;;19.16;100.00;100458.17;1661565;86;21608;-73
2021/05/26 04:52:37;;;;;;;17.85;8.80;;;;;;;19.39;100.00;100461.75;1661719;86;21568;-73
2021/05/26 04:55:05;;;;;;;15.23;7.75;;;;;;;19.60;100.00;100460.58;1661793;86;21110;-72
2021/05/26 04:57:32;;;;;;;21.75;9.40;;;;;;;19.81;100.00;100450.33;1661602;86;21552;-72
2021/05/26 05:00:00;;;;;;;13.48;8.00;;;;;;;19.98;100.00;100450.64;1661584;86;21106;-73
2021/05/26 05:02:27;;;;;;;24.37;8.30;;;;;;;20.14;100.00;100448.70;1661549;86;21078;-73
2021/05/26 05:04:53;;;;;;;14.30;7.85;;;;;;;20.36;100.00;100453.78;1661549;86;21087;-72
2021/05/26 05:07:21;;;;;;;18.30;7.83;;;;;;;20.56;100.00;100449.49;1661807;86;21082;-72
2021/05/26 05:09:48;;;;;;;17.02;7.12;;;;;;;20.75;100.00;100449.84;1681411;82;21012;-77
2021/05/26 05:12:15;;;;;;;136.22;122.25;;;;;;;20.96;100.00;100449.89;1763381;80;21100;-76
2021/05/26 05:14:44;;;;;;;17.73;11.08;;;;;;;21.17;100.00;100452.70;1756474;80;20986;-76
2021/05/26 05:17:10;;;;;;;9.25;6.75;;;;;;;21.31;100.00;100444.30;1749982;81;21558;-78
2021/05/26 05:19:37;;;;;;;12.28;7.20;;;;;;;21.38;100.00;100444.50;1747439;81;21033;-75
2021/05/26 05:22:05;;;;;;;29.23;19.98;;;;;;;21.43;100.00;100441.06;1747260;81;21041;-77
2021/05/26 05:24:33;;;;;;;59.20;48.73;;;;;;;21.54;100.00;100444.95;1747714;80;21044;-75
2021/05/26 05:27:00;;;;;;;89.58;74.00;;;;;;;21.67;100.00;100443.91;1749157;81;21088;-75
2021/05/26 05:29:27;;;;;;;15.68;10.08;;;;;;;21.84;100.00;100449.05;1748672;81;20962;-73
2021/05/26 05:31:53;;;;;;;43.23;20.88;;;;;;;22.00;100.00;100442.85;1745978;81;21053;-73
2021/05/26 05:34:20;;;;;;;25.27;10.55;;;;;;;22.21;100.00;100443.37;1755330;81;21040;-70
2021/05/26 05:36:47;;;;;;;22.35;8.70;;;;;;;22.43;100.00;100439.50;1763258;81;21036;-72
2021/05/26 05:39:14;;;;;;;21.40;7.42;;;;;;;22.56;100.00;100437.89;1763717;81;21068;-72
2021/05/26 05:41:44;;;;;;;13.18;6.30;;;;;;;22.75;100.00;100434.46;1770745;81;21061;-74
2021/05/26 05:44:10;;;;;;;9.48;5.70;;;;;;;22.97;100.00;100435.19;1763044;81;21077;-70
2021/05/26 05:46:36;;;;;;;14.53;6.45;;;;;;;23.13;100.00;100436.38;1763334;81;21030;-68
2021/05/26 05:49:03;;;;;;;13.15;6.00;;;;;;;23.25;100.00;100433.59;1771021;81;21013;-70
2021/05/26 05:51:30;;;;;;;24.50;7.00;;;;;;;23.24;100.00;100435.48;1763300;81;21022;-70
2021/05/26 05:53:56;;;;;;;11.65;5.72;;;;;;;23.30;100.00;100440.04;1763152;80;21010;-71
2021/05/26 05:56:23;;;;;;;27.90;14.47;;;;;;;23.35;100.00;100434.31;1763431;81;21022;-70
2021/05/26 05:58:50;;;;;;;18.05;12.23;;;;;;;23.41;100.00;100434.17;1763164;81;21082;-71
2021/05/26 06:01:17;;;;;;;12.58;6.42;;;;;;;23.55;100.00;100429.72;1762476;81;21069;-71
2021/05/26 06:03:44;;;;;;;11.05;4.85;;;;;;;23.66;100.00;100431.59;1762856;81;21030;-75
2021/05/26 06:06:11;;;;;;;8.03;4.62;;;;;;;23.92;100.00;100433.44;1763304;81;21033;-73
2021/05/26 06:08:37;;;;;;;9.60;4.78;;;;;;;24.15;100.00;100435.20;1756254;81;20978;-73
2021/05/26 06:11:04;;;;;;;10.23;4.80;;;;;;;24.33;100.00;100432.72;1752811;81;21013;-73
2021/05/26 06:13:32;;;;;;;7.55;4.60;;;;;;;24.44;100.00;100435.39;1770422;80;21558;-71
2021/05/26 06:15:58;;;;;;;6.40;4.42;;;;;;;24.41;100.00;100429.53;1771679;79;21013;-70
2021/05/26 06:18:25;;;;;;;7.92;5.05;;;;;;;24.25;100.00;100432.61;1771507;81;21001;-73
2021/05/26 06:20:52;;;;;;;8.03;5.15;;;;;;;24.16;100.00;100435.51;1768137;81;21053;-71
2021/05/26 06:23:19;;;;;;;8.98;4.95;;;;;;;24.16;100.00;100432.75;1772537;81;21057;-72
2021/05/26 06:25:47;;;;;;;8.43;5.37;;;;;;;24.30;100.00;100433.24;1771776;81;21056;-71
2021/05/26 06:28:14;;;;;;;9.78;5.30;;;;;;;24.40;100.00;100431.99;1765133;81;21028;-70
2021/05/26 06:30:41;;;;;;;8.33;5.25;;;;;;;24.64;100.00;100435.42;1770262;80;21104;-71
2021/05/26 06:33:08;;;;;;;9.70;4.70;;;;;;;24.70;100.00;100430.80;1763011;81;21033;-73
2021/05/26 06:35:35;;;;;;;6.83;4.70;;;;;;;24.82;100.00;100439.81;1754840;81;20994;-73
2021/05/26 06:38:03;;;;;;;16.20;5.30;;;;;;;24.96;100.00;100426.45;1766557;81;21064;-74
2021/05/26 06:40:31;;;;;;;15.32;5.58;;;;;;;25.16;100.00;100427.23;1747036;81;21029;-73
2021/05/26 06:42:57;;;;;;;12.85;4.92;;;;;;;25.31;100.00;100428.00;1741454;82;21009;-72
2021/05/26 06:45:24;;;;;;;19.45;5.50;;;;;;;25.49;100.00;100435.11;1741173;82;21139;-73
2021/05/26 06:47:51;;;;;;;19.05;6.58;;;;;;;25.50;100.00;100422.95;1741549;81;21017;-71
2021/05/26 06:50:18;;;;;;;13.48;5.95;;;;;;;25.48;100.00;100430.66;1748150;81;21001;-72
2021/05/26 06:52:45;;;;;;;8.40;4.70;;;;;;;25.60;100.00;100425.80;1761795;81;21039;-73
2021/05/26 06:55:12;;;;;;;12.37;5.92;;;;;;;25.82;100.00;100424.92;1765018;81;21522;-73
2021/05/26 06:57:39;;;;;;;16.67;6.20;;;;;;;25.99;100.00;100425.63;1764115;81;21085;-71
2021/05/26 07:00:08;;;;;;;15.58;11.03;;;;;;;25.93;100.00;100425.28;1769855;81;21084;-73
2021/05/26 07:02:34;;;;;;;11.90;7.72;;;;;;;25.83;100.00;100423.81;1764657;81;21110;-73
2021/05/26 07:05:02;;;;;;;19.75;13.62;;;;;;;25.67;100.00;100426.98;1757326;80;21608;-73
2021/05/26 07:07:30;;;;;;;8.93;5.87;;;;;;;25.51;100.00;100414.36;1764199;81;21584;-73
2021/05/26 07:09:56;;;;;;;15.00;5.55;;;;;;;25.28;100.00;100414.13;1766867;81;21029;-72
2021/05/26 07:12:23;;;;;;;12.75;4.90;;;;;;;25.17;100.00;100417.84;1767832;81;21173;-72
2021/05/26 07:14:50;;;;;;;11.53;5.70;;;;;;;25.14;100.00;100414.20;1751025;80;21502;-73
2021/05/26 07:17:17;;;;;;;41.00;30.97;;;;;;;25.05;100.00;100419.36;1733493;83;21048;-73
2021/05/26 07:19:44;;;;;;;25.55;17.20;;;;;;;24.93;100.00;100417.27;1733008;82;21181;-73
2021/05/26 07:22:10;;;;;;;20.32;11.45;;;;;;;24.98;100.00;100414.05;1732234;81;21131;-70
2021/05/26 07:24:38;;;;;;;12.40;5.90;;;;;;;25.14;100.00;100413.69;1733388;82;21162;-71
2021/05/26 07:27:05;;;;;;;15.28;6.45;;;;;;;25.35;100.00;100420.84;1733466;83;21069;-71
2021/05/26 07:29:32;;;;;;;5.75;4.92;;;;;;;25.53;100.00;100419.12;1745748;81;21001;-71
2021/05/26 07:32:00;;;;;;;10.30;5.67;;;;;;;25.63;100.00;100423.08;1761806;81;21042;-74
2021/05/26 07:34:26;;;;;;;15.83;6.80;;;;;;;25.76;100.00;100419.86;1760164;81;21081;-73
2021/05/26 07:36:53;;;;;;;9.33;5.47;;;;;;;26.02;100.00;100418.75;1696020;84;21049;-73
2021/05/26 07:39:24;;;;;;;10.30;6.15;;;;;;;26.28;100.00;100411.47;1762762;81;21510;-73
2021/05/26 07:41:50;;;;;;;22.45;14.20;;;;;;;26.32;100.00;100414.80;1754754;81;21033;-78
2021/05/26 07:44:17;;;;;;;15.85;7.55;;;;;;;26.57;100.00;100413.86;1747392;81;21029;-75
2021/05/26 07:46:44;;;;;;;8.45;5.20;;;;;;;26.57;100.00;100416.06;1737789;81;20980;-70
2021/05/26 07:49:10;;;;;;;13.80;5.75;;;;;;;26.37;100.00;100411.24;1750260;81;21602;-69
2021/05/26 07:51:45;;;;;;;15.95;6.28;;;;;;;25.99;100.00;100417.32;1756580;81;21021;-69
2021/05/26 07:54:08;;;;;;;11.57;5.75;;;;;;;25.65;100.00;100412.57;1755800;81;21077;-68
2021/05/26 07:56:35;;;;;;;11.93;6.95;;;;;;;25.38;100.00;100417.01;1747760;81;21025;-67
2021/05/26 07:59:03;;;;;;;23.38;7.85;;;;;;;25.38;100.00;100409.27;1735352;81;21077;-71
2021/05/26 08:01:32;;;;;;;17.40;9.83;;;;;;;25.89;100.00;100407.53;1735033;81;20993;-69
2021/05/26 08:03:58;;;;;;;13.45;6.90;;;;;;;26.57;100.00;100396.66;1760664;81;21014;-69
2021/05/26 08:06:25;;;;;;;9.20;5.45;;;;;;;26.99;100.00;100398.55;1755863;80;21061;-68
2021/05/26 08:08:52;;;;;;;11.05;5.40;;;;;;;27.06;100.00;100408.02;1686645;83;21050;-71
2021/05/26 08:11:18;;;;;;;17.80;7.72;;;;;;;27.03;100.00;100401.61;1733130;83;21519;-69
2021/05/26 08:13:46;;;;;;;9.53;5.60;;;;;;;26.79;100.00;100403.47;1748840;81;21586;-73
2021/05/26 08:16:12;;;;;;;6.53;5.10;;;;;;;26.52;100.00;100405.80;1758945;81;21526;-74
2021/05/26 08:18:39;;;;;;;22.65;12.68;;;;;;;26.39;100.00;100404.88;1759531;81;20997;-70
2021/05/26 08:21:11;;;;;;;21.77;9.68;;;;;;;26.42;100.00;100409.89;1737470;81;21036;-74
2021/05/26 08:23:38;;;;;;;14.80;7.42;;;;;;;26.51;100.00;100413.82;1727894;82;21052;-73
2021/05/26 08:26:07;;;;;;;14.07;8.55;;;;;;;26.80;100.00;100400.96;1747735;81;21558;-75
2021/05/26 08:28:33;;;;;;;21.50;7.15;;;;;;;26.97;100.00;100401.30;1753913;81;21033;-74
2021/05/26 08:31:00;;;;;;;17.05;7.17;;;;;;;26.93;100.00;100396.84;1754403;81;21031;-73
2021/05/26 08:33:26;;;;;;;17.82;10.25;;;;;;;27.03;100.00;100400.23;1756595;81;21005;-75
2021/05/26 08:35:53;;;;;;;28.40;9.45;;;;;;;27.36;100.00;100396.20;1754937;81;21297;-73
2021/05/26 08:38:19;;;;;;;13.20;6.85;;;;;;;27.68;100.00;100404.85;1753954;81;21025;-76
2021/05/26 08:40:45;;;;;;;15.88;8.05;;;;;;;27.73;100.00;100395.14;1757692;81;21495;-73
2021/05/26 08:43:16;;;;;;;11.15;6.10;;;;;;;27.71;100.00;100397.89;1756498;81;21048;-72
2021/05/26 08:45:44;;;;;;;11.93;7.53;;;;;;;27.75;100.00;100394.30;1758679;80;21501;-69
2021/05/26 08:48:15;;;;;;;20.80;11.35;;;;;;;27.96;100.00;100389.61;1753986;80;21462;-68
2021/05/26 08:50:46;;;;;;;15.05;6.20;;;;;;;28.13;100.00;100397.64;1744653;81;21133;-70
2021/05/26 08:53:13;;;;;;;13.48;6.67;;;;;;;27.86;100.00;100397.09;1724943;81;21506;-69
2021/05/26 08:55:39;;;;;;;21.50;15.43;;;;;;;27.38;100.00;100396.75;1760201;80;21483;-69
2021/05/26 08:58:05;;;;;;;18.55;10.55;;;;;;;26.98;100.00;100389.11;1768566;81;21024;-69
2021/05/26 09:00:32;;;;;;;11.97;7.42;;;;;;;26.57;100.00;100398.60;1766647;81;21170;-70
2021/05/26 09:02:58;;;;;;;19.25;9.70;;;;;;;26.32;100.00;100394.02;1749163;81;20996;-75
2021/05/26 09:05:26;;;;;;;6.75;5.67;;;;;;;26.33;100.00;100394.31;1703294;84;21607;-69
2021/05/26 09:07:54;;;;;;;17.75;9.00;;;;;;;26.59;100.00;100394.45;1754625;81;21017;-70
2021/05/26 09:10:20;;;;;;;39.92;10.78;;;;;;;26.83;100.00;100389.33;1738649;82;21031;-71
2021/05/26 09:12:48;;;;;;;17.25;8.18;;;;;;;26.84;100.00;100386.00;1768387;80;21088;-69
2021/05/26 09:15:20;;;;;;;14.65;6.90;;;;;;;26.75;100.00;100387.62;1771533;81;21046;-70
2021/05/26 09:17:51;;;;;;;8.23;5.78;;;;;;;26.55;100.00;100395.27;1769754;81;21092;-69
2021/05/26 09:20:31;;;;;;;15.25;6.15;;;;;;;26.71;100.00;100387.34;1757756;81;21682;-67
2021/05/26 09:23:13;;;;;;;14.70;6.83;;;;;;;27.16;100.00;100385.00;1681853;83;21027;-71
2021/05/26 09:25:50;;;;;;;11.70;5.70;;;;;;;27.68;100.00;100378.46;1666338;84;21063;-69
2021/05/26 09:28:34;;;;;;;12.85;6.25;;;;;;;27.94;100.00;100379.33;1662442;85;21034;-71
2021/05/26 09:31:07;;;;;;;11.08;8.20;;;;;;;27.82;100.00;100372.63;1670213;85;21685;-70
2021/05/26 09:33:44;;;;;;;18.15;11.40;;;;;;;27.70;100.00;100379.58;1671051;85;21091;-69
2021/05/26 09:36:26;;;;;;;50.88;42.27;;;;;;;27.81;100.00;100377.07;1662711;86;21151;-72
2021/05/26 09:39:02;;;;;;;14.93;7.75;;;;;;;27.77;100.00;100381.52;1663059;85;21095;-69
2021/05/26 09:41:31;;;;;;;27.45;9.13;;;;;;;27.74;100.00;100377.34;1667753;86;21111;-69
2021/05/26 09:46:39;;;;;;;15.93;6.60;;;;;;;27.06;100.00;100375.55;1620527;87;21599;-69
2021/05/26 09:49:15;;;;;;;10.58;6.33;;;;;;;26.89;100.00;100368.81;1581982;91;21087;-69
2021/05/26 09:51:51;;;;;;;16.10;6.65;;;;;;;26.89;100.00;100367.42;1582793;89;21158;-70
2021/05/26 09:54:23;;;;;;;7.20;5.00;;;;;;;27.03;100.00;100370.53;1557845;92;21619;-70
2021/05/26 09:57:06;;;;;;;17.50;8.73;;;;;;;27.25;100.00;100363.91;1557751;92;21109;-69
2021/05/26 09:59:36;;;;;;;18.57;7.55;;;;;;;27.41;98.21;100362.03;1557981;92;21173;-70
2021/05/26 10:04:31;;;;;;;16.10;5.33;;;;;;;27.71;100.00;100359.00;1520563;94;21156;-70
2021/05/26 10:07:17;;;;;;;16.37;6.08;;;;;;;28.10;91.56;100349.58;1520888;94;21131;-70
2021/05/26 10:09:46;;;;;;;20.88;10.00;;;;;;;28.29;87.12;100351.19;1520842;94;21139;-71
2021/05/26 10:12:16;;;;;;;15.68;8.45;;;;;;;28.32;90.23;100348.41;1497018;96;21117;-68
2021/05/26 10:14:44;;;;;;;17.65;8.10;;;;;;;28.57;93.95;100356.69;1495089;94;21184;-69
2021/05/26 10:17:18;;;;;;;17.17;7.62;;;;;;;28.90;94.04;100348.77;1490581;96;21658;-71
2021/05/26 10:19:42;;;;;;;12.73;8.48;;;;;;;29.25;88.32;100352.51;1514255;92;21149;-73
2021/05/26 10:22:09;;;;;;;15.05;5.65;;;;;;;29.36;86.78;100351.88;1562098;91;21102;-69
2021/05/26 10:24:36;;;;;;;14.13;5.92;;;;;;;29.24;84.34;100350.02;1554882;91;21101;-69
2021/05/26 10:27:04;;;;;;;15.75;7.87;;;;;;;29.01;83.85;100346.77;1618061;88;21042;-71
2021/05/26 10:29:33;;;;;;;21.05;10.38;;;;;;;28.66;89.73;100354.72;1627202;88;21052;-70
2021/05/26 10:32:09;;;;;;;16.40;7.90;;;;;;;28.65;92.72;100355.83;1627196;88;21098;-68
2021/05/26 10:34:51;;;;;;;12.45;6.50;;;;;;;28.78;86.54;100344.10;1616835;88;21077;-70
2021/05/26 10:37:38;;;;;;;11.25;5.55;;;;;;;28.88;81.69;100345.98;1620759;88;21169;-71
2021/05/26 10:40:33;;;;;;;12.13;5.87;;;;;;;29.06;86.33;100350.09;1566209;90;21095;-69
2021/05/26 10:43:21;;;;;;;23.85;14.58;;;;;;;29.37;85.83;100345.73;1539545;92;21114;-75
2021/05/26 10:45:50;;;;;;;12.78;6.05;;;;;;;29.47;84.52;100345.67;1559908;90;21189;-73
2021/05/26 10:48:43;;;;;;;10.10;5.55;;;;;;;29.33;85.33;100339.34;1533278;93;21157;-74
2021/05/26 10:51:11;;;;;;;10.65;6.00;;;;;;;29.29;81.81;100342.45;1533890;93;21449;-76
2021/05/26 10:53:43;;;;;;;17.05;6.45;;;;;;;29.40;80.01;100335.42;1528642;93;21068;-75
2021/05/26 10:56:37;;;;;;;20.17;10.23;;;;;;;29.54;84.04;100334.45;1533177;93;21573;-79
2021/05/26 10:59:13;;;;;;;21.07;13.40;;;;;;;29.57;84.67;100334.45;1468294;97;21262;-76
2021/05/26 11:02:10;;;;;;;13.55;7.00;;;;;;;29.17;88.74;100325.83;1467481;98;21253;-79
2021/05/26 11:04:38;;;;;;;12.43;7.00;;;;;;;29.11;84.19;100327.77;1465375;98;21145;-73
2021/05/26 11:07:32;;;;;;;18.70;10.15;;;;;;;28.87;89.01;100321.51;1460957;97;21182;-73
2021/05/26 11:10:03;;;;;;;19.57;8.18;;;;;;;28.93;91.63;100320.38;1509702;94;21177;-78
2021/05/26 11:12:58;;;;;;;14.53;9.23;;;;;;;29.07;90.86;100318.34;1535030;92;21093;-71
2021/05/26 11:15:44;;;;;;;19.23;9.95;;;;;;;29.06;88.94;100315.30;1505058;94;21086;-71
2021/05/26 11:18:16;;;;;;;14.55;9.63;;;;;;;28.91;90.31;100312.02;1544168;93;21117;-70
2021/05/26 11:20:43;;;;;;;19.77;13.83;;;;;;;29.20;95.98;100312.70;1543320;91;21170;-71
2021/05/26 11:23:11;;;;;;;17.80;8.83;;;;;;;29.39;89.95;100306.72;1544314;93;21143;-72
2021/05/26 11:25:57;;;;;;;20.75;14.30;;;;;;;28.97;88.31;100304.76;1551514;90;21071;-71
2021/05/26 11:28:32;;;;;;;22.48;8.95;;;;;;;28.76;89.35;100308.21;1544310;90;21039;-72